sensor_id;sensor_type;location;lat;lon;timestamp;pressure;altitude;pressure_sealevel;temperature;humidity
74913;BME280;63878;55.624;37.304;2023-03-20T00:04:37;99471.00;;;-5.35;59.62
74913;BME280;63878;55.624;37.304;2023-03-20T00:14:37;99470.13;;;-5.83;60.99
74913;BME280;63878;55.624;37.304;2023-03-20T00:24:38;99469.22;;;-5.79;60.61
74913;BME280;63878;55.624;37.304;2023-03-20T00:34:39;99471.81;;;-5.82;60.69
74913;BME280;63878;55.624;37.304;2023-03-20T00:44:44;99459.84;;;-5.83;61.12
74913;BME280;63878;55.624;37.304;2023-03-20T00:54:47;99451.75;;;-5.62;60.86
74913;BME280;63878;55.624;37.304;2023-03-20T01:04:48;99445.97;;;-5.74;61.22
74913;BME280;63878;55.624;37.304;2023-03-20T01:14:50;99450.84;;;-5.58;60.81
74913;BME280;63878;55.624;37.304;2023-03-20T01:24:51;99445.22;;;-5.79;61.65
74913;BME280;63878;55.624;37.304;2023-03-20T01:34:51;99439.22;;;-5.78;60.95
74913;BME280;63878;55.624;37.304;2023-03-20T01:44:52;99437.50;;;-5.81;61.15
74913;BME280;63878;55.624;37.304;2023-03-20T01:54:52;99412.09;;;-5.96;61.04
74913;BME280;63878;55.624;37.304;2023-03-20T02:04:55;99410.19;;;-5.85;60.81
74913;BME280;63878;55.624;37.304;2023-03-20T02:14:57;99411.03;;;-5.85;60.46
74913;BME280;63878;55.624;37.304;2023-03-20T02:25:33;99350.84;;;-6.22;60.13
74913;BME280;63878;55.624;37.304;2023-03-20T03:16:32;99365.84;;;-5.98;55.07
74913;BME280;63878;55.624;37.304;2023-03-20T03:26:36;99373.72;;;-6.07;56.17
74913;BME280;63878;55.624;37.304;2023-03-20T03:37:02;99370.34;;;-6.11;56.58
74913;BME280;63878;55.624;37.304;2023-03-20T03:47:18;99348.41;;;-6.30;56.96
74913;BME280;63878;55.624;37.304;2023-03-20T03:57:30;99354.75;;;-6.54;58.71
74913;BME280;63878;55.624;37.304;2023-03-20T04:07:33;99344.63;;;-6.61;60.30
74913;BME280;63878;55.624;37.304;2023-03-20T04:17:34;99330.59;;;-6.39;59.27
74913;BME280;63878;55.624;37.304;2023-03-20T04:27:34;99335.63;;;-6.34;59.74
74913;BME280;63878;55.624;37.304;2023-03-20T04:37:35;99332.72;;;-6.15;60.38
74913;BME280;63878;55.624;37.304;2023-03-20T04:47:35;99339.75;;;-5.76;59.39
74913;BME280;63878;55.624;37.304;2023-03-20T04:57:36;99334.53;;;-5.72;59.02
74913;BME280;63878;55.624;37.304;2023-03-20T05:07:37;99324.69;;;-5.10;55.96
74913;BME280;63878;55.624;37.304;2023-03-20T05:17:37;99347.50;;;-4.93;55.63
74913;BME280;63878;55.624;37.304;2023-03-20T05:27:38;99336.69;;;-4.70;54.14
74913;BME280;63878;55.624;37.304;2023-03-20T05:37:38;99337.25;;;-4.57;53.88
74913;BME280;63878;55.624;37.304;2023-03-20T05:47:39;99334.78;;;-4.26;53.51
74913;BME280;63878;55.624;37.304;2023-03-20T05:57:40;99342.72;;;-4.00;51.63
74913;BME280;63878;55.624;37.304;2023-03-20T06:07:40;99342.63;;;-3.97;51.47
74913;BME280;63878;55.624;37.304;2023-03-20T06:17:43;99334.66;;;-3.89;52.79
74913;BME280;63878;55.624;37.304;2023-03-20T06:27:48;99336.03;;;-3.76;52.54
74913;BME280;63878;55.624;37.304;2023-03-20T06:37:49;99325.66;;;-3.73;53.03
74913;BME280;63878;55.624;37.304;2023-03-20T06:47:49;99346.84;;;-3.30;50.77
74913;BME280;63878;55.624;37.304;2023-03-20T06:57:49;99324.75;;;-3.11;50.15
74913;BME280;63878;55.624;37.304;2023-03-20T07:07:50;99316.66;;;-2.99;50.15
74913;BME280;63878;55.624;37.304;2023-03-20T07:17:51;99308.31;;;-2.79;49.43
74913;BME280;63878;55.624;37.304;2023-03-20T07:27:51;99311.94;;;-2.58;49.91
74913;BME280;63878;55.624;37.304;2023-03-20T07:37:52;99291.94;;;-2.53;47.61
74913;BME280;63878;55.624;37.304;2023-03-20T07:47:53;99307.31;;;-2.22;47.61
74913;BME280;63878;55.624;37.304;2023-03-20T07:57:53;99297.72;;;-2.18;46.61
74913;BME280;63878;55.624;37.304;2023-03-20T08:07:54;99284.19;;;-2.02;46.08
74913;BME280;63878;55.624;37.304;2023-03-20T08:17:54;99287.34;;;-1.68;44.07
74913;BME280;63878;55.624;37.304;2023-03-20T08:27:55;99281.03;;;-1.61;42.66
74913;BME280;63878;55.624;37.304;2023-03-20T08:37:55;99266.97;;;-1.54;42.59
74913;BME280;63878;55.624;37.304;2023-03-20T08:47:56;99275.06;;;-1.40;42.20
74913;BME280;63878;55.624;37.304;2023-03-20T08:57:56;99259.09;;;-1.06;40.84
74913;BME280;63878;55.624;37.304;2023-03-20T09:07:59;99255.78;;;-0.87;39.76
74913;BME280;63878;55.624;37.304;2023-03-20T09:17:59;99235.47;;;-0.76;39.60
74913;BME280;63878;55.624;37.304;2023-03-20T09:28:00;99203.81;;;-0.63;38.28
74913;BME280;63878;55.624;37.304;2023-03-20T09:38:01;99230.25;;;-0.34;37.52
74913;BME280;63878;55.624;37.304;2023-03-20T09:48:12;99209.72;;;0.01;38.17
74913;BME280;63878;55.624;37.304;2023-03-20T09:58:24;99190.56;;;0.24;36.29
74913;BME280;63878;55.624;37.304;2023-03-20T10:08:28;99173.88;;;0.29;37.63
74913;BME280;63878;55.624;37.304;2023-03-20T10:18:34;99168.66;;;0.48;37.44
74913;BME280;63878;55.624;37.304;2023-03-20T10:29:03;99169.72;;;0.63;38.03
74913;BME280;63878;55.624;37.304;2023-03-20T10:49:29;99140.50;;;0.94;38.26
74913;BME280;63878;55.624;37.304;2023-03-20T10:59:35;99127.69;;;1.08;39.20
74913;BME280;63878;55.624;37.304;2023-03-20T11:09:38;99122.88;;;1.18;40.14
74913;BME280;63878;55.624;37.304;2023-03-20T11:19:40;99117.47;;;1.22;41.01
74913;BME280;63878;55.624;37.304;2023-03-20T11:29:42;99102.97;;;1.34;40.89
74913;BME280;63878;55.624;37.304;2023-03-20T12:00:29;99061.84;;;2.23;39.77
74913;BME280;63878;55.624;37.304;2023-03-20T12:10:37;99042.41;;;2.13;39.19
74913;BME280;63878;55.624;37.304;2023-03-20T12:20:44;99038.47;;;2.21;39.45
74913;BME280;63878;55.624;37.304;2023-03-20T12:41:25;98987.00;;;2.10;40.74
74913;BME280;63878;55.624;37.304;2023-03-20T12:51:49;99011.97;;;2.75;39.24
74913;BME280;63878;55.624;37.304;2023-03-20T13:02:18;98994.94;;;2.69;39.01
74913;BME280;63878;55.624;37.304;2023-03-20T13:12:38;98988.16;;;2.81;39.30
74913;BME280;63878;55.624;37.304;2023-03-20T13:43:30;98947.09;;;2.70;41.15
74913;BME280;63878;55.624;37.304;2023-03-20T13:53:50;98958.00;;;2.77;42.37
74913;BME280;63878;55.624;37.304;2023-03-20T14:03:53;98942.34;;;2.77;42.24
74913;BME280;63878;55.624;37.304;2023-03-20T14:14:05;98932.34;;;2.55;42.88
74913;BME280;63878;55.624;37.304;2023-03-20T14:24:12;98919.84;;;2.46;43.19
74913;BME280;63878;55.624;37.304;2023-03-20T14:34:18;98933.72;;;2.46;43.58
74913;BME280;63878;55.624;37.304;2023-03-20T14:54:38;98903.53;;;1.98;45.50
74913;BME280;63878;55.624;37.304;2023-03-20T15:04:42;98909.81;;;2.09;45.09
74913;BME280;63878;55.624;37.304;2023-03-20T15:14:48;98916.38;;;2.01;45.69
74913;BME280;63878;55.624;37.304;2023-03-20T15:24:55;98908.09;;;1.78;45.76
74913;BME280;63878;55.624;37.304;2023-03-20T15:34:56;98898.78;;;1.74;45.91
74913;BME280;63878;55.624;37.304;2023-03-20T15:44:57;98904.16;;;1.71;46.37
74913;BME280;63878;55.624;37.304;2023-03-20T15:55:01;98909.38;;;1.55;46.60
74913;BME280;63878;55.624;37.304;2023-03-20T16:05:02;98906.44;;;1.30;47.52
74913;BME280;63878;55.624;37.304;2023-03-20T16:15:04;98918.31;;;1.03;47.37
74913;BME280;63878;55.624;37.304;2023-03-20T16:25:05;98924.75;;;0.95;48.60
74913;BME280;63878;55.624;37.304;2023-03-20T16:35:20;98922.56;;;0.86;48.12
74913;BME280;63878;55.624;37.304;2023-03-20T16:45:28;98894.91;;;0.52;48.92
74913;BME280;63878;55.624;37.304;2023-03-20T16:55:30;98918.06;;;0.39;49.43
74913;BME280;63878;55.624;37.304;2023-03-20T17:05:54;98912.09;;;0.20;50.73
74913;BME280;63878;55.624;37.304;2023-03-20T17:15:56;98883.44;;;-0.30;51.36
74913;BME280;63878;55.624;37.304;2023-03-20T17:25:56;98890.75;;;-0.21;51.78
74913;BME280;63878;55.624;37.304;2023-03-20T17:36:00;98899.75;;;-0.28;52.12
74913;BME280;63878;55.624;37.304;2023-03-20T17:46:02;98894.19;;;-0.38;52.83
74913;BME280;63878;55.624;37.304;2023-03-20T17:56:04;98897.91;;;-0.44;52.29
74913;BME280;63878;55.624;37.304;2023-03-20T18:06:06;98876.16;;;-0.41;52.19
74913;BME280;63878;55.624;37.304;2023-03-20T18:16:18;98876.03;;;-0.38;52.42
74913;BME280;63878;55.624;37.304;2023-03-20T18:26:25;98863.81;;;-0.36;52.41
74913;BME280;63878;55.624;37.304;2023-03-20T18:36:25;98859.59;;;-0.56;53.08
74913;BME280;63878;55.624;37.304;2023-03-20T18:46:26;98850.16;;;-0.76;53.58
74913;BME280;63878;55.624;37.304;2023-03-20T18:56:26;98841.66;;;-0.79;53.78
74913;BME280;63878;55.624;37.304;2023-03-20T19:06:27;98839.25;;;-0.29;52.65
74913;BME280;63878;55.624;37.304;2023-03-20T19:16:30;98844.00;;;-0.37;53.18
74913;BME280;63878;55.624;37.304;2023-03-20T19:26:32;98837.41;;;-0.44;53.69
74913;BME280;63878;55.624;37.304;2023-03-20T19:36:35;98836.16;;;-0.54;53.81
74913;BME280;63878;55.624;37.304;2023-03-20T19:46:36;98826.31;;;-0.29;52.66
74913;BME280;63878;55.624;37.304;2023-03-20T19:56:37;98796.00;;;-0.46;53.24
74913;BME280;63878;55.624;37.304;2023-03-20T20:06:37;98806.53;;;-0.49;53.10
74913;BME280;63878;55.624;37.304;2023-03-20T20:16:38;98774.88;;;-0.55;53.18
74913;BME280;63878;55.624;37.304;2023-03-20T20:26:38;98769.91;;;-0.60;53.34
74913;BME280;63878;55.624;37.304;2023-03-20T20:36:39;98768.38;;;-0.47;53.26
74913;BME280;63878;55.624;37.304;2023-03-20T20:46:39;98763.38;;;-0.50;53.52
74913;BME280;63878;55.624;37.304;2023-03-20T20:56:40;98760.03;;;-0.52;53.27
74913;BME280;63878;55.624;37.304;2023-03-20T21:06:41;98729.16;;;-0.93;53.98
74913;BME280;63878;55.624;37.304;2023-03-20T21:16:41;98696.41;;;-1.12;54.29
74913;BME280;63878;55.624;37.304;2023-03-20T21:26:42;98741.13;;;-0.73;54.23
74913;BME280;63878;55.624;37.304;2023-03-20T21:36:43;98730.31;;;-0.81;54.72
74913;BME280;63878;55.624;37.304;2023-03-20T21:46:44;98727.09;;;-0.86;55.04
74913;BME280;63878;55.624;37.304;2023-03-20T21:56:45;98704.41;;;-0.98;54.78
74913;BME280;63878;55.624;37.304;2023-03-20T22:06:46;98698.69;;;-0.87;54.42
74913;BME280;63878;55.624;37.304;2023-03-20T22:16:46;98689.94;;;-0.85;54.87
74913;BME280;63878;55.624;37.304;2023-03-20T22:26:47;98683.91;;;-0.85;54.95
74913;BME280;63878;55.624;37.304;2023-03-20T22:36:48;98667.84;;;-0.92;55.42
74913;BME280;63878;55.624;37.304;2023-03-20T22:46:49;98645.03;;;-1.03;55.09
74913;BME280;63878;55.624;37.304;2023-03-20T22:56:49;98658.59;;;-0.98;55.57
74913;BME280;63878;55.624;37.304;2023-03-20T23:06:50;98645.19;;;-0.88;55.25
74913;BME280;63878;55.624;37.304;2023-03-20T23:16:51;98636.03;;;-0.96;55.73
74913;BME280;63878;55.624;37.304;2023-03-20T23:26:52;98632.00;;;-0.84;55.48
74913;BME280;63878;55.624;37.304;2023-03-20T23:36:52;98613.94;;;-1.03;56.14
74913;BME280;63878;55.624;37.304;2023-03-20T23:46:53;98607.00;;;-1.02;56.16
74913;BME280;63878;55.624;37.304;2023-03-20T23:56:53;98597.94;;;-0.94;55.76
